Time;durP1;ratioP1;P1;durP2;ratioP2;P2;SDS_P1;SDS_P2;PMS_P1;PMS_P2;Temp;Humidity;BMP_temperature;BMP_pressure;BME280_temperature;BME280_humidity;BME280_pressure;Samples;Min_cycle;Max_cycle;Signal;HPM_P1;HPM_P2
2022/06/26 00:01:00;;;;;;;1999.90;999.90;;;15.50;99.90;;;;;;5034294;28;20108;-73
2022/06/26 00:03:29;;;;;;;1999.90;999.90;;;15.40;99.90;;;;;;5034387;28;20056;-80
2022/06/26 00:05:55;;;;;;;1999.90;999.90;;;15.40;99.90;;;;;;5034263;28;20531;-80
2022/06/26 00:08:21;;;;;;;1999.90;999.90;;;15.40;99.90;;;;;;5034054;28;20036;-74
2022/06/26 00:10:48;;;;;;;1999.90;999.90;;;15.30;99.90;;;;;;5014224;28;20028;-74
2022/06/26 00:13:14;;;;;;;1999.90;999.90;;;15.30;99.90;;;;;;5014370;28;20507;-74
2022/06/26 00:15:40;;;;;;;1999.90;999.90;;;15.20;99.90;;;;;;5014355;28;20116;-80
2022/06/26 00:18:06;;;;;;;1999.90;999.90;;;15.10;99.90;;;;;;5014513;28;20134;-80
2022/06/26 00:20:32;;;;;;;1999.90;999.90;;;15.10;99.90;;;;;;5033971;28;20095;-80
2022/06/26 00:22:58;;;;;;;1999.90;999.90;;;15.00;99.90;;;;;;5033495;28;20017;-74
2022/06/26 00:25:23;;;;;;;1999.90;999.90;;;15.00;99.90;;;;;;5033893;28;20040;-74
2022/06/26 00:27:49;;;;;;;1999.90;999.90;;;14.90;99.90;;;;;;5033870;28;20495;-74
2022/06/26 00:30:15;;;;;;;1999.90;999.90;;;14.90;99.90;;;;;;5016280;28;20503;-80
2022/06/26 00:32:41;;;;;;;1999.90;999.90;;;14.80;99.90;;;;;;5033711;28;20053;-80
2022/06/26 00:35:07;;;;;;;1999.90;999.90;;;14.80;99.90;;;;;;5033789;28;20030;-74
2022/06/26 00:37:33;;;;;;;1999.90;999.90;;;14.80;99.90;;;;;;5032662;28;20035;-80
2022/06/26 00:39:59;;;;;;;1999.90;999.90;;;14.80;99.90;;;;;;5013923;28;20440;-80
2022/06/26 00:42:25;;;;;;;1999.90;999.90;;;14.80;99.90;;;;;;5028454;28;20112;-74
2022/06/26 00:44:55;;;;;;;1999.90;999.90;;;14.80;99.90;;;;;;5033613;28;20488;-80
2022/06/26 00:47:22;;;;;;;1999.90;999.90;;;14.80;99.90;;;;;;5032931;28;20025;-80
2022/06/26 00:49:48;;;;;;;1999.90;999.90;;;14.80;99.90;;;;;;5032895;28;20564;-73
2022/06/26 00:52:15;;;;;;;1999.90;999.90;;;14.70;99.90;;;;;;5033217;28;20060;-74
2022/06/26 00:54:41;;;;;;;1999.90;999.90;;;14.70;99.90;;;;;;5033614;28;20026;-74
2022/06/26 00:57:06;;;;;;;1999.90;999.90;;;14.70;99.90;;;;;;5019454;28;20036;-80
2022/06/26 00:59:33;;;;;;;1999.90;999.90;;;14.70;99.90;;;;;;5020629;28;20400;-80
2022/06/26 01:01:59;;;;;;;1999.90;999.90;;;14.70;99.90;;;;;;5032349;28;20489;-74
2022/06/26 01:04:25;;;;;;;1999.90;999.90;;;14.70;99.90;;;;;;5032936;28;20499;-74
2022/06/26 01:06:51;;;;;;;1999.90;999.90;;;14.60;99.90;;;;;;5032943;28;20046;-74
2022/06/26 01:09:17;;;;;;;1999.90;999.90;;;14.60;99.90;;;;;;5033061;28;20029;-74
2022/06/26 01:11:43;;;;;;;1999.90;999.90;;;14.50;99.90;;;;;;5015167;28;20098;-80
2022/06/26 01:14:10;;;;;;;1999.90;999.90;;;14.50;99.90;;;;;;5032837;28;20036;-80
2022/06/26 01:16:37;;;;;;;1999.90;999.90;;;14.50;99.90;;;;;;5032433;28;20032;-74
2022/06/26 01:19:05;;;;;;;1999.90;999.90;;;14.40;99.90;;;;;;5033073;28;20460;-74
2022/06/26 01:21:32;;;;;;;1999.90;999.90;;;14.40;99.90;;;;;;5032456;28;20060;-74
2022/06/26 01:23:58;;;;;;;1999.90;999.90;;;14.40;99.90;;;;;;5032913;28;20033;-80
2022/06/26 01:26:25;;;;;;;1999.90;999.90;;;14.40;99.90;;;;;;5032914;28;20053;-80
2022/06/26 01:28:51;;;;;;;1999.90;999.90;;;14.40;99.90;;;;;;5023170;28;20112;-74
2022/06/26 01:31:19;;;;;;;1999.90;999.90;;;14.40;99.90;;;;;;5029009;28;20029;-74
2022/06/26 01:33:48;;;;;;;1999.90;999.90;;;14.40;99.90;;;;;;5032535;28;20041;-80
2022/06/26 01:36:14;;;;;;;1999.90;999.90;;;14.40;99.90;;;;;;5032523;28;20036;-79
2022/06/26 01:38:40;;;;;;;1999.90;999.90;;;14.40;99.90;;;;;;5013107;28;20026;-80
2022/06/26 01:41:06;;;;;;;1999.90;999.90;;;14.40;99.90;;;;;;5029467;28;20485;-74
2022/06/26 01:43:34;;;;;;;1999.90;999.90;;;14.40;99.90;;;;;;5032811;28;20106;-74
2022/06/26 01:46:00;;;;;;;1999.90;999.90;;;14.40;99.90;;;;;;5014447;28;20100;-80
2022/06/26 01:48:27;;;;;;;1999.90;999.90;;;14.40;99.90;;;;;;5032337;28;20026;-80
2022/06/26 01:50:54;;;;;;;1999.90;999.90;;;14.30;99.90;;;;;;5032049;28;20376;-73
2022/06/26 01:53:21;;;;;;;1999.90;999.90;;;14.30;99.90;;;;;;5032474;28;20056;-80
2022/06/26 01:55:46;;;;;;;1999.90;999.90;;;14.30;99.90;;;;;;5031239;28;20453;-74
2022/06/26 01:58:13;;;;;;;1999.90;999.90;;;14.30;99.90;;;;;;5032312;28;20061;-73
2022/06/26 02:00:40;;;;;;;1999.90;999.90;;;14.30;99.90;;;;;;5014644;28;20022;-73
2022/06/26 02:03:07;;;;;;;1999.90;999.90;;;14.30;99.90;;;;;;5032697;28;20072;-80
2022/06/26 02:05:33;;;;;;;1999.90;999.90;;;14.30;99.90;;;;;;5031943;28;20030;-80
2022/06/26 02:07:59;;;;;;;1999.90;999.90;;;14.20;99.90;;;;;;5032364;28;20068;-74
2022/06/26 02:15:56;;;;;;;1999.90;999.90;;;14.30;99.90;;;;;;5016720;28;20455;-74
2022/06/26 02:18:22;;;;;;;1999.90;999.90;;;14.20;99.90;;;;;;5016472;28;20037;-80
2022/06/26 02:20:48;;;;;;;1999.90;999.90;;;14.20;99.90;;;;;;5016601;28;20026;-80
2022/06/26 02:23:15;;;;;;;1999.90;999.90;;;14.30;99.90;;;;;;5016123;28;20053;-74
2022/06/26 02:25:41;;;;;;;1999.90;999.90;;;14.30;99.90;;;;;;5016577;28;20496;-80
2022/06/26 02:28:07;;;;;;;1999.90;999.90;;;14.30;99.90;;;;;;5019909;28;20429;-80
2022/06/26 02:30:33;;;;;;;1999.90;999.90;;;14.30;99.90;;;;;;5036294;28;20117;-80
2022/06/26 02:32:58;;;;;;;1999.90;999.90;;;14.30;99.90;;;;;;5035830;28;20029;-75
2022/06/26 02:35:25;;;;;;;1999.90;999.90;;;14.30;99.90;;;;;;5036318;28;20049;-80
2022/06/26 02:37:54;;;;;;;1999.90;999.90;;;14.30;99.90;;;;;;5017988;28;20048;-80
2022/06/26 02:40:20;;;;;;;1999.90;999.90;;;14.20;99.90;;;;;;5036025;28;20028;-79
2022/06/26 02:42:46;;;;;;;1999.90;999.90;;;14.20;99.90;;;;;;5034060;28;20026;-80
2022/06/26 02:45:12;;;;;;;1999.90;999.90;;;14.20;99.90;;;;;;5035753;28;20029;-74
2022/06/26 02:47:39;;;;;;;1999.90;999.90;;;14.20;99.90;;;;;;5017843;28;20029;-74
2022/06/26 02:50:06;;;;;;;1999.90;999.90;;;14.10;99.90;;;;;;5017567;28;20252;-79
2022/06/26 02:52:32;;;;;;;1999.90;999.90;;;14.20;99.90;;;;;;5035670;28;20436;-80
2022/06/26 02:54:58;;;;;;;1999.90;999.90;;;14.10;99.90;;;;;;5035683;28;20056;-80
2022/06/26 02:57:24;;;;;;;1999.90;999.90;;;14.10;99.90;;;;;;5018180;28;20061;-80
2022/06/26 02:59:50;;;;;;;1999.90;999.90;;;14.00;99.90;;;;;;5024555;28;20060;-73
2022/06/26 03:02:15;;;;;;;1999.90;999.90;;;14.00;99.90;;;;;;5035149;28;20033;-74
2022/06/26 03:04:42;;;;;;;1999.90;999.90;;;13.90;99.90;;;;;;5035063;28;20052;-80
2022/06/26 03:07:08;;;;;;;1999.90;999.90;;;13.90;99.90;;;;;;5017255;28;20057;-79
2022/06/26 03:09:34;;;;;;;1999.90;999.90;;;13.90;99.90;;;;;;5035437;28;20021;-80
2022/06/26 03:11:59;;;;;;;1999.90;999.90;;;13.90;99.90;;;;;;5035023;28;20048;-74
2022/06/26 03:14:25;;;;;;;1999.90;999.90;;;13.90;99.90;;;;;;5035292;28;20036;-74
2022/06/26 03:16:51;;;;;;;1999.90;999.90;;;13.80;99.90;;;;;;5035260;28;20443;-74
2022/06/26 03:19:17;;;;;;;1999.90;999.90;;;13.80;99.90;;;;;;5035347;28;20026;-80
2022/06/26 03:21:42;;;;;;;1999.90;999.90;;;13.80;99.90;;;;;;5032707;28;20029;-74
2022/06/26 03:24:08;;;;;;;1999.90;999.90;;;13.80;99.90;;;;;;5014309;28;20524;-79
2022/06/26 03:26:38;;;;;;;1999.90;999.90;;;13.80;99.90;;;;;;5015122;28;20025;-74
2022/06/26 03:29:06;;;;;;;1999.90;999.90;;;13.70;99.90;;;;;;5025711;28;20396;-73
2022/06/26 03:31:32;;;;;;;1999.90;999.90;;;13.70;99.90;;;;;;5035040;28;20022;-80
2022/06/26 03:33:58;;;;;;;1999.90;999.90;;;13.70;99.90;;;;;;5034704;28;20083;-80
2022/06/26 03:36:25;;;;;;;1999.90;999.90;;;13.70;99.90;;;;;;5034765;28;20030;-80
2022/06/26 03:38:52;;;;;;;1999.90;999.90;;;13.70;99.90;;;;;;5035020;28;20095;-80
2022/06/26 03:41:18;;;;;;;1999.90;999.90;;;13.60;99.90;;;;;;5029342;28;20033;-74
2022/06/26 03:43:43;;;;;;;1999.90;999.90;;;13.60;99.90;;;;;;5015603;28;20489;-80
2022/06/26 03:46:09;;;;;;;1999.90;999.90;;;13.60;99.90;;;;;;5014819;28;20037;-80
2022/06/26 03:48:35;;;;;;;1999.90;999.90;;;13.60;99.90;;;;;;5026737;28;20073;-80
2022/06/26 03:51:01;;;;;;;1999.90;999.90;;;13.50;99.90;;;;;;5034057;28;20100;-75
2022/06/26 03:53:28;;;;;;;1999.90;999.90;;;13.50;99.90;;;;;;5016736;28;20028;-79
2022/06/26 03:55:54;;;;;;;1999.90;999.90;;;13.50;99.90;;;;;;5034527;28;20021;-73
2022/06/26 03:58:20;;;;;;;1999.90;999.90;;;13.50;99.90;;;;;;5016722;28;20026;-79
2022/06/26 04:00:45;;;;;;;1999.90;999.90;;;13.50;99.90;;;;;;5034181;28;20502;-80
2022/06/26 04:03:11;;;;;;;1999.90;999.90;;;13.50;99.90;;;;;;5034660;28;20522;-74
2022/06/26 04:05:40;;;;;;;1999.90;999.90;;;13.40;99.90;;;;;;5034311;28;20558;-74
2022/06/26 04:08:06;;;;;;;1999.90;999.90;;;13.40;99.90;;;;;;5034180;28;20040;-73
2022/06/26 04:10:33;;;;;;;1999.90;999.90;;;13.40;99.90;;;;;;5034079;28;20022;-79
2022/06/26 04:13:04;;;;;;;1999.90;999.90;;;13.40;99.90;;;;;;5016226;28;20474;-79
2022/06/26 04:15:31;;;;;;;1999.90;999.90;;;13.40;99.90;;;;;;5033475;28;20078;-73
2022/06/26 04:17:58;;;;;;;1999.90;999.90;;;13.40;99.90;;;;;;5034044;28;20540;-73
2022/06/26 04:20:24;;;;;;;1999.90;999.90;;;13.40;99.90;;;;;;5034084;28;20029;-74
2022/06/26 04:22:57;;;;;;;1999.90;999.90;;;13.50;99.90;;;;;;5033647;28;20028;-74
2022/06/26 04:25:24;;;;;;;1999.90;999.90;;;13.50;99.90;;;;;;5033987;28;20492;-80
2022/06/26 04:27:50;;;;;;;1999.90;999.90;;;13.60;99.90;;;;;;5015503;28;20034;-80
2022/06/26 04:30:16;;;;;;;1999.90;999.90;;;13.60;99.90;;;;;;5033917;28;20400;-73
2022/06/26 04:32:42;;;;;;;1999.90;999.90;;;13.50;99.90;;;;;;5033573;28;20030;-73
2022/06/26 04:35:09;;;;;;;1999.90;999.90;;;13.50;99.90;;;;;;5033658;28;20021;-80
2022/06/26 04:37:36;;;;;;;1999.90;999.90;;;13.40;99.90;;;;;;5014613;28;20079;-80
2022/06/26 04:40:04;;;;;;;1999.90;999.90;;;13.30;99.90;;;;;;5015869;28;20048;-74
2022/06/26 04:42:30;;;;;;;1999.90;999.90;;;13.30;99.90;;;;;;5032715;28;20053;-79
2022/06/26 04:44:56;;;;;;;1999.90;999.90;;;13.20;99.90;;;;;;5013933;28;20066;-74
2022/06/26 04:47:21;;;;;;;1999.90;999.90;;;13.20;99.90;;;;;;5016165;28;20520;-78
2022/06/26 04:49:47;;;;;;;1999.90;999.90;;;13.20;99.90;;;;;;5015840;28;20068;-80
2022/06/26 04:52:14;;;;;;;1999.90;999.90;;;13.20;99.90;;;;;;5032436;28;20104;-80
2022/06/26 04:54:41;;;;;;;1999.90;999.90;;;13.20;99.90;;;;;;5015875;28;20033;-73
2022/06/26 04:57:06;;;;;;;1999.90;999.90;;;13.20;99.90;;;;;;5033061;28;20049;-74
2022/06/26 04:59:32;;;;;;;1999.90;999.90;;;13.20;99.90;;;;;;5015570;28;20060;-73
2022/06/26 05:01:58;;;;;;;1999.90;999.90;;;13.20;99.90;;;;;;5032852;28;20076;-80
2022/06/26 05:04:23;;;;;;;1999.90;999.90;;;13.30;99.90;;;;;;5033059;28;20108;-74
2022/06/26 05:06:49;;;;;;;1999.90;999.90;;;13.30;99.90;;;;;;5015005;28;20136;-73
2022/06/26 05:09:16;;;;;;;1999.90;999.90;;;13.30;99.90;;;;;;5033337;28;20412;-80
2022/06/26 05:11:42;;;;;;;1999.90;999.90;;;13.30;99.90;;;;;;5032760;28;20053;-74
2022/06/26 05:14:09;;;;;;;1999.90;999.90;;;13.30;99.90;;;;;;5033328;28;20495;-80
2022/06/26 05:16:34;;;;;;;1999.90;999.90;;;13.30;99.90;;;;;;5015016;28;20164;-73
2022/06/26 05:19:00;;;;;;;1999.90;999.90;;;13.30;99.90;;;;;;5033290;28;20032;-80
2022/06/26 05:21:26;;;;;;;1999.90;999.90;;;13.40;99.90;;;;;;5032510;28;20096;-80
2022/06/26 05:23:52;;;;;;;1999.90;999.90;;;13.40;99.90;;;;;;5033069;28;20061;-80
2022/06/26 05:26:18;;;;;;;1999.90;999.90;;;13.50;99.90;;;;;;5032331;28;20025;-79
2022/06/26 05:28:43;;;;;;;1999.90;999.90;;;13.50;99.90;;;;;;5024222;28;20535;-80
2022/06/26 05:31:09;;;;;;;1999.90;999.90;;;13.60;99.90;;;;;;5013292;28;20029;-73
2022/06/26 05:33:34;;;;;;;1999.90;999.90;;;13.60;99.90;;;;;;5012806;28;20116;-80
2022/06/26 05:36:00;;;;;;;1999.90;999.90;;;13.60;99.90;;;;;;5018625;28;20112;-74
2022/06/26 05:38:26;;;;;;;1999.90;999.90;;;13.70;99.90;;;;;;5014524;28;20032;-74
2022/06/26 05:40:51;;;;;;;1999.90;999.90;;;13.70;99.90;;;;;;5030491;28;20022;-80
2022/06/26 05:43:17;;;;;;;1999.90;999.90;;;13.70;99.90;;;;;;5013722;28;20022;-80
2022/06/26 05:45:43;;;;;;;1999.90;999.90;;;13.80;99.90;;;;;;5013306;28;20068;-80
2022/06/26 05:48:08;;;;;;;1999.90;999.90;;;13.90;99.90;;;;;;5020928;28;20428;-73
2022/06/26 05:50:34;;;;;;;1999.90;999.90;;;14.00;99.90;;;;;;5032363;28;20029;-80
2022/06/26 05:53:00;;;;;;;1999.90;999.90;;;14.10;99.90;;;;;;5031871;28;20087;-73
2022/06/26 05:55:26;;;;;;;1999.90;999.90;;;14.10;99.90;;;;;;5032459;28;20146;-74
2022/06/26 05:57:51;;;;;;;1999.90;999.90;;;14.30;99.90;;;;;;5032647;28;20104;-80
2022/06/26 06:00:17;;;;;;;1999.90;999.90;;;14.30;99.90;;;;;;5032377;28;20029;-80
2022/06/26 06:02:43;;;;;;;1999.90;999.90;;;14.40;99.90;;;;;;5032699;28;20028;-74
2022/06/26 06:05:09;;;;;;;1999.90;999.90;;;14.50;99.90;;;;;;5032551;28;20509;-73
2022/06/26 06:07:36;;;;;;;1999.90;999.90;;;14.60;99.90;;;;;;5032125;28;20081;-80
2022/06/26 06:10:03;;;;;;;1999.90;999.90;;;14.80;99.90;;;;;;5032545;28;20033;-79
2022/06/26 06:12:29;;;;;;;1999.90;999.90;;;14.90;99.90;;;;;;5032257;28;20044;-80
2022/06/26 06:14:55;;;;;;;1999.90;999.90;;;15.00;99.90;;;;;;5032511;28;20476;-74
2022/06/26 06:17:36;;;;;;;1999.90;999.90;;;15.10;99.90;;;;;;5032321;28;20028;-73
2022/06/26 06:20:04;;;;;;;1999.90;999.90;;;15.30;99.90;;;;;;5032209;28;20030;-80
2022/06/26 06:22:30;;;;;;;1999.90;999.90;;;15.40;99.90;;;;;;5031891;28;20013;-80
2022/06/26 06:24:55;;;;;;;1999.90;999.90;;;15.50;99.90;;;;;;5014742;28;20537;-79
2022/06/26 06:27:21;;;;;;;1999.90;999.90;;;15.60;99.90;;;;;;5032407;28;20026;-74
2022/06/26 06:29:47;;;;;;;1999.90;999.90;;;15.70;99.90;;;;;;5014941;28;20062;-74
2022/06/26 06:32:13;;;;;;;1999.90;999.90;;;15.80;99.90;;;;;;5012490;28;20088;-80
2022/06/26 06:34:39;;;;;;;1999.90;999.90;;;15.90;99.90;;;;;;5012348;28;20034;-80
2022/06/26 06:37:05;;;;;;;1999.90;999.90;;;16.00;99.90;;;;;;5012294;28;20029;-80
2022/06/26 06:39:31;;;;;;;1999.90;999.90;;;16.00;99.90;;;;;;5029337;28;20021;-80
2022/06/26 06:41:57;;;;;;;1999.90;999.90;;;16.20;99.90;;;;;;5031378;28;20032;-74
2022/06/26 06:44:23;;;;;;;1999.90;999.90;;;16.50;99.90;;;;;;5032202;28;20026;-80
2022/06/26 06:46:48;;;;;;;1999.90;999.90;;;16.80;99.90;;;;;;5021653;28;20081;-80
2022/06/26 06:49:14;;;;;;;1999.90;999.90;;;17.00;99.90;;;;;;5029906;28;20052;-74
2022/06/26 06:51:40;;;;;;;1999.90;999.90;;;17.10;99.90;;;;;;5031786;28;20120;-80
2022/06/26 06:54:06;;;;;;;1999.90;999.90;;;17.20;99.90;;;;;;5031467;28;20087;-74
2022/06/26 06:56:32;;;;;;;1999.90;999.90;;;17.30;99.90;;;;;;5032083;28;20439;-73
2022/06/26 06:58:58;;;;;;;1999.90;999.90;;;17.50;99.90;;;;;;5029756;28;20038;-80
2022/06/26 07:01:23;;;;;;;1999.90;999.90;;;17.70;99.90;;;;;;5026247;28;20100;-74
2022/06/26 07:03:49;;;;;;;1999.90;999.90;;;18.00;99.90;;;;;;5033241;28;20409;-80
2022/06/26 07:06:15;;;;;;;1999.90;999.90;;;18.00;99.90;;;;;;5025972;28;20058;-80
2022/06/26 07:08:40;;;;;;;1999.90;999.90;;;18.00;99.90;;;;;;5035361;28;20068;-80
2022/06/26 07:11:06;;;;;;;1999.90;999.90;;;18.10;99.90;;;;;;5017393;28;20030;-80
2022/06/26 07:13:31;;;;;;;1999.90;999.90;;;18.30;99.90;;;;;;5035207;28;20029;-80
2022/06/26 07:15:57;;;;;;;1999.90;999.90;;;18.40;99.90;;;;;;5034344;28;20401;-80
2022/06/26 07:18:24;;;;;;;1999.90;999.90;;;18.50;99.90;;;;;;5035288;28;20112;-80
2022/06/26 07:20:50;;;;;;;1999.90;999.90;;;18.40;99.90;;;;;;5017246;28;20407;-73
2022/06/26 07:23:16;;;;;;;1999.90;999.90;;;18.30;99.90;;;;;;5034954;28;20029;-81
2022/06/26 07:25:42;;;;;;;1999.90;999.90;;;18.30;99.90;;;;;;5035319;28;20031;-73
2022/06/26 07:28:08;;;;;;;1999.90;999.90;;;18.40;99.90;;;;;;5013260;28;20022;-81
2022/06/26 07:30:34;;;;;;;1999.90;999.90;;;18.60;99.90;;;;;;5015490;28;20026;-81
2022/06/26 07:33:04;;;;;;;1999.90;999.90;;;19.00;99.90;;;;;;5014886;28;20058;-74
2022/06/26 07:35:30;;;;;;;1999.90;999.90;;;20.70;99.90;;;;;;5015369;28;20385;-74
2022/06/26 07:37:56;;;;;;;1999.90;999.90;;;22.60;98.40;;;;;;5018767;28;20056;-81
2022/06/26 07:40:21;;;;;;;1999.90;999.90;;;23.50;96.80;;;;;;5034875;28;20438;-81
2022/06/26 07:42:47;;;;;;;1999.90;999.90;;;23.90;96.10;;;;;;5033728;28;20057;-81
2022/06/26 07:45:13;;;;;;;1999.90;999.90;;;24.00;95.80;;;;;;5034919;28;20483;-74
2022/06/26 07:47:38;;;;;;;1999.90;999.90;;;24.70;95.60;;;;;;5016577;28;20549;-82
2022/06/26 07:50:05;;;;;;;1999.90;999.90;;;25.40;94.00;;;;;;5034729;28;20087;-80
2022/06/26 07:52:30;;;;;;;1999.90;999.90;;;25.60;93.70;;;;;;5034320;28;20076;-82
2022/06/26 07:54:56;;;;;;;1999.90;999.90;;;25.50;93.40;;;;;;5016284;28;20037;-81
2022/06/26 07:57:21;;;;;;;1999.90;999.90;;;23.90;93.80;;;;;;5034543;28;20070;-81
2022/06/26 07:59:47;;;;;;;1999.90;999.90;;;22.00;95.70;;;;;;5034417;28;20032;-74
2022/06/26 08:02:13;;;;;;;1999.90;999.90;;;20.20;98.00;;;;;;5034505;28;20033;-73
2022/06/26 08:04:39;;;;;;;1999.90;999.90;;;19.20;99.80;;;;;;5034478;28;20029;-80
2022/06/26 08:07:04;;;;;;;1999.90;999.90;;;18.60;99.90;;;;;;5033901;28;20053;-80
2022/06/26 08:09:30;;;;;;;1999.90;999.90;;;18.30;99.90;;;;;;5034226;28;20064;-80
2022/06/26 08:11:56;;;;;;;1999.90;999.90;;;18.40;99.90;;;;;;5033727;28;20025;-73
2022/06/26 08:14:22;;;;;;;1999.90;999.90;;;18.30;99.90;;;;;;5034307;28;20552;-73
2022/06/26 08:16:47;;;;;;;1999.90;999.90;;;18.40;99.90;;;;;;5033815;28;20116;-80
2022/06/26 08:19:13;;;;;;;1999.90;999.90;;;18.40;99.90;;;;;;5034219;28;20131;-80
2022/06/26 08:24:23;;;;;;;1999.90;999.90;;;19.00;99.90;;;;;;5034181;28;20036;-80
2022/06/26 08:26:49;;;;;;;1999.90;999.90;;;21.40;99.90;;;;;;5031745;28;20021;-74
2022/06/26 08:29:14;;;;;;;1999.90;999.90;;;24.80;95.80;;;;;;5021123;28;20057;-82
2022/06/26 08:31:40;;;;;;;1999.90;999.90;;;26.80;92.40;;;;;;5013666;28;20108;-82
2022/06/26 08:34:06;;;;;;;1999.90;999.90;;;26.70;92.20;;;;;;5013839;28;20129;-82
2022/06/26 08:36:32;;;;;;;1999.90;999.90;;;26.80;91.80;;;;;;5013674;28;20026;-81
2022/06/26 08:38:57;;;;;;;1999.90;999.90;;;23.70;93.40;;;;;;5026382;28;20472;-75
2022/06/26 08:41:28;;;;;;;1999.90;999.90;;;22.00;96.00;;;;;;5031997;28;20072;-81
2022/06/26 08:44:00;;;;;;;1999.90;999.90;;;22.00;95.50;;;;;;5015843;28;20083;-80
2022/06/26 08:46:27;;;;;;;1999.90;999.90;;;22.90;95.10;;;;;;5015813;28;20151;-74
2022/06/26 08:48:55;;;;;;;1999.90;999.90;;;25.20;94.20;;;;;;5031721;28;20033;-82
2022/06/26 08:51:21;;;;;;;1999.90;999.90;;;26.00;92.00;;;;;;5015587;28;20022;-74
2022/06/26 08:53:47;;;;;;;1999.90;999.90;;;26.40;91.50;;;;;;5032885;28;20110;-74
2022/06/26 08:56:13;;;;;;;1999.90;999.90;;;25.70;91.30;;;;;;5019215;28;20017;-74
2022/06/26 08:58:38;;;;;;;1999.90;999.90;;;25.40;91.70;;;;;;5033425;28;20025;-81
2022/06/26 09:01:05;;;;;;;1999.90;999.90;;;24.80;92.80;;;;;;5019087;28;20025;-74
2022/06/26 09:03:32;;;;;;;1999.90;999.90;;;25.80;93.50;;;;;;5033381;28;20026;-74
2022/06/26 09:05:57;;;;;;;1999.90;999.90;;;26.40;93.00;;;;;;5033352;28;20084;-74
2022/06/26 09:08:25;;;;;;;1999.90;999.90;;;25.30;92.30;;;;;;5032994;28;20057;-81
2022/06/26 09:10:51;;;;;;;1999.90;999.90;;;23.50;94.20;;;;;;5033032;28;20018;-80
2022/06/26 09:13:17;;;;;;;1999.90;999.90;;;23.30;95.40;;;;;;5015343;28;20025;-81
2022/06/26 09:15:44;;;;;;;1999.90;999.90;;;25.10;92.80;;;;;;5032930;28;20029;-81
2022/06/26 09:18:12;;;;;;;1999.90;999.90;;;25.60;92.50;;;;;;5032945;28;20029;-74
2022/06/26 09:20:50;;;;;;;1999.90;999.90;;;26.90;92.20;;;;;;5033057;28;20096;-81
2022/06/26 09:23:16;;;;;;;1999.90;999.90;;;27.00;91.90;;;;;;5032023;28;20026;-74
2022/06/26 09:25:44;;;;;;;1999.90;999.90;;;28.10;90.80;;;;;;5033092;28;20047;-74
2022/06/26 09:28:16;;;;;;;1999.90;999.90;;;28.10;90.40;;;;;;5026219;28;20033;-80
2022/06/26 09:30:55;;;;;;;1999.90;999.90;;;26.20;90.40;;;;;;5013234;28;20524;-74
2022/06/26 09:33:23;;;;;;;1999.90;999.90;;;26.60;91.70;;;;;;5012846;28;20030;-74
2022/06/26 09:35:49;;;;;;;1999.90;999.90;;;28.00;90.70;;;;;;5013182;28;20029;-82
2022/06/26 09:38:23;;;;;;;1999.90;999.90;;;27.60;88.00;;;;;;5024198;28;20022;-82
2022/06/26 09:40:52;;;;;;;1999.90;999.90;;;27.10;90.00;;;;;;5014500;28;20045;-81
2022/06/26 09:43:28;;;;;;;1999.90;999.90;;;25.90;91.00;;;;;;5032679;28;20491;-74
2022/06/26 09:45:55;;;;;;;1999.90;999.90;;;27.80;90.30;;;;;;5032317;28;20563;-74
2022/06/26 09:48:24;;;;;;;1999.90;999.90;;;27.60;89.30;;;;;;5032773;28;20021;-74
2022/06/26 09:50:50;;;;;;;1999.90;999.90;;;25.80;89.60;;;;;;5030141;28;20029;-74
2022/06/26 09:53:17;;;;;;;1999.90;999.90;;;26.10;90.30;;;;;;5012878;28;20033;-82
2022/06/26 09:55:43;;;;;;;1999.90;999.90;;;26.30;89.50;;;;;;4996732;28;20478;-74
2022/06/26 09:58:09;;;;;;;1999.90;999.90;;;24.20;89.40;;;;;;5032765;28;20036;-75
2022/06/26 10:00:35;;;;;;;1999.90;999.90;;;24.40;90.80;;;;;;4999368;28;20030;-81
2022/06/26 10:08:36;;;;;;;1999.90;999.90;;;26.80;88.10;;;;;;5012662;28;20076;-75
2022/06/26 10:11:03;;;;;;;1999.90;999.90;;;29.00;85.80;;;;;;5012854;28;20036;-74
2022/06/26 10:13:33;;;;;;;1999.90;999.90;;;28.30;84.30;;;;;;5012671;28;20136;-81
2022/06/26 10:16:14;;;;;;;1999.90;999.90;;;26.00;86.50;;;;;;5012303;28;20400;-81
2022/06/26 10:19:05;;;;;;;1999.90;999.90;;;24.80;88.10;;;;;;5012684;28;20105;-74
2022/06/26 10:21:36;;;;;;;1999.90;999.90;;;24.10;88.30;;;;;;5000179;28;20772;-74
2022/06/26 10:24:03;;;;;;;1999.90;999.90;;;24.80;88.50;;;;;;4995117;28;20026;-74
2022/06/26 10:26:29;;;;;;;1999.90;999.90;;;26.00;87.70;;;;;;5012404;28;20022;-82
2022/06/26 10:29:03;;;;;;;1999.90;999.90;;;25.50;85.70;;;;;;5022577;28;20056;-81
2022/06/26 10:31:50;;;;;;;1999.90;999.90;;;24.10;88.10;;;;;;5014614;28;20026;-80
2022/06/26 10:34:23;;;;;;;1999.90;999.90;;;23.00;90.70;;;;;;5034083;28;20037;-74
2022/06/26 10:37:13;;;;;;;1999.90;999.90;;;23.30;91.20;;;;;;5035793;28;20033;-73
2022/06/26 10:39:39;;;;;;;1999.90;999.90;;;23.10;90.40;;;;;;5018387;28;20463;-81
2022/06/26 10:45:09;;;;;;;1999.90;999.90;;;24.60;87.20;;;;;;5035727;28;20507;-81
2022/06/26 10:47:53;;;;;;;1999.90;999.90;;;24.20;88.90;;;;;;5017620;28;20068;-74
2022/06/26 10:50:29;;;;;;;1999.90;999.90;;;23.30;90.00;;;;;;5035910;28;20076;-74
2022/06/26 10:53:12;;;;;;;1999.90;999.90;;;23.30;90.60;;;;;;5017799;28;20036;-74
2022/06/26 10:55:38;;;;;;;;;;;23.50;90.60;;;;;;5035430;28;20024;-81
2022/06/26 10:58:04;;;;;;;1999.90;999.90;;;23.90;88.90;;;;;;5017880;28;20011;-81
2022/06/26 11:00:29;;;;;;;1999.90;999.90;;;23.90;90.20;;;;;;5021139;28;20105;-74
2022/06/26 11:02:55;;;;;;;1999.90;999.90;;;24.10;90.80;;;;;;5015582;28;20037;-74
2022/06/26 11:05:20;;;;;;;1999.90;999.90;;;24.40;90.10;;;;;;5014931;28;20041;-81
2022/06/26 11:07:51;;;;;;;1999.90;999.90;;;23.40;90.40;;;;;;5015740;28;20033;-74
2022/06/26 11:10:19;;;;;;;1999.90;999.90;;;22.70;91.40;;;;;;5015873;28;20026;-81
2022/06/26 11:12:50;;;;;;;1999.90;999.90;;;22.10;91.70;;;;;;5015516;28;20535;-81
2022/06/26 11:15:19;;;;;;;1999.90;999.90;;;21.70;93.10;;;;;;5015405;28;20489;-74
2022/06/26 11:17:59;;;;;;;1999.90;999.90;;;21.80;93.20;;;;;;5014888;28;20022;-80
2022/06/26 11:23:12;;;;;;;1999.90;999.90;;;21.90;92.80;;;;;;5035214;28;20385;-80
2022/06/26 11:25:41;;;;;;;1999.90;999.90;;;21.90;92.40;;;;;;5035298;28;20037;-74
2022/06/26 11:28:08;;;;;;;1999.90;999.90;;;21.90;93.40;;;;;;5023108;28;20428;-82
2022/06/26 11:30:36;;;;;;;1999.90;999.90;;;22.10;93.00;;;;;;5035231;28;20107;-80
2022/06/26 11:33:02;;;;;;;1999.90;999.90;;;21.90;93.80;;;;;;5034731;28;20018;-81
2022/06/26 11:35:27;;;;;;;1999.90;999.90;;;21.90;93.80;;;;;;5035086;28;20499;-81
2022/06/26 11:37:53;;;;;;;1999.90;999.90;;;22.00;93.60;;;;;;5034206;28;20021;-74
2022/06/26 11:40:21;;;;;;;1999.90;999.90;;;22.00;93.90;;;;;;5034982;28;20028;-74
2022/06/26 11:42:55;;;;;;;1999.90;999.90;;;21.90;93.80;;;;;;5034544;28;20020;-80
2022/06/26 11:45:24;;;;;;;1999.90;999.90;;;22.00;93.90;;;;;;5034146;28;20496;-81
2022/06/26 11:47:50;;;;;;;1999.90;999.90;;;21.80;94.10;;;;;;5034244;28;20108;-80
2022/06/26 11:50:20;;;;;;;1999.90;999.90;;;21.80;95.50;;;;;;5034695;28;20560;-81
2022/06/26 11:52:53;;;;;;;1999.90;999.90;;;22.20;94.90;;;;;;5034440;28;20025;-81
2022/06/26 11:55:19;;;;;;;1999.90;999.90;;;22.20;94.40;;;;;;5034521;28;20029;-75
2022/06/26 11:57:46;;;;;;;1999.90;999.90;;;21.90;94.80;;;;;;4997904;28;20477;-81
2022/06/26 12:00:13;;;;;;;1999.90;999.90;;;21.30;95.50;;;;;;5026314;28;20056;-81
2022/06/26 12:02:45;;;;;;;1999.90;999.90;;;21.80;95.40;;;;;;5034251;28;20029;-81
2022/06/26 12:05:11;;;;;;;1999.90;999.90;;;22.70;95.20;;;;;;5034842;28;20064;-74
2022/06/26 12:07:45;;;;;;;1999.90;999.90;;;23.20;94.40;;;;;;5034063;28;20416;-80
2022/06/26 12:10:11;;;;;;;1999.90;999.90;;;23.40;94.80;;;;;;5016431;28;20049;-81
2022/06/26 12:12:47;;;;;;;1999.90;999.90;;;23.30;93.60;;;;;;5034155;28;20488;-81
2022/06/26 12:15:15;;;;;;;1999.90;999.90;;;23.70;93.50;;;;;;5034093;28;20374;-81
2022/06/26 12:17:42;;;;;;;1999.90;999.90;;;24.60;94.30;;;;;;5034090;28;20507;-81